KHDN

Yampa Valley Airport

Hayden, Colorado, USA
METAR KHDN 191556Z AUTO 08003KT 10SM BKN003 M11/M13 A3040 RMK AO2 SLP353 T11111128 FZRANO
Observed Flight Rules
Jan-19 @ 15:56 UTC (41 minutes ago) Instrument Flight Rules
Wind Visibility Clouds
80° at 3 knots 10 miles
  • Broken at 300' AGL
Temperatures Readings
Current -11°C / 12°F
Dewpoint -13°C / 9°F
Humidity 85%
Altimeter 30.4" Hg
Pressure 1035.3 hPa
Elevation 2012
METAR KHDN 191556Z AUTO 08003KT 10SM BKN003 M11/M13 A3040 RMK AO2 SLP353 T11111128 FZRANO
Observed Flight Rules
Jan-19 @ 15:56 UTC
(41 minutes ago)
LIFR
Wind Visibility
80° at 3 knots 10 miles
Clouds
  • Broken at 300' AGL
Temperature Dewpoint
-11°C / 12°F -13°C / 9°F
Humidity Altimeter Pressure
85% 30.4" Hg 1035.3 hPa